Time;durP1;ratioP1;P1;durP2;ratioP2;P2;SDS_P1;SDS_P2;PMS_P1;PMS_P2;Temp;Humidity;BMP_temperature;BMP_pressure;BME280_temperature;BME280_humidity;BME280_pressure;Samples;Min_cycle;Max_cycle;Signal;HPM_P1;HPM_P2
2021/04/30 00:00:10;;;;;;;9.65;7.05;;;11.20;82.70;;;9.80;77.95;95407.53;5033215;28;20033;-70
2021/04/30 00:02:37;;;;;;;8.05;7.20;;;11.10;82.40;;;9.79;77.42;95405.91;4996582;28;20037;-70
2021/04/30 00:05:04;;;;;;;10.10;7.95;;;11.20;82.50;;;9.78;78.32;95404.28;5010693;28;20549;-70
2021/04/30 00:07:30;;;;;;;8.70;6.75;;;11.10;82.60;;;9.76;77.21;95398.44;5008528;28;20594;-72
2021/04/30 00:09:55;;;;;;;9.48;7.22;;;11.10;82.20;;;9.74;78.15;95392.56;5015033;28;20037;-71
2021/04/30 00:12:21;;;;;;;9.63;7.63;;;11.10;82.40;;;9.74;77.74;95392.56;5005026;28;20602;-71
2021/04/30 00:14:47;;;;;;;10.38;6.70;;;11.10;81.60;;;9.71;77.04;95390.31;5004027;28;20057;-71
2021/04/30 00:17:13;;;;;;;9.23;6.82;;;11.10;81.50;;;9.75;77.11;95394.19;4990512;28;20513;-70
2021/04/30 00:19:38;;;;;;;10.38;7.10;;;11.20;81.30;;;9.73;77.03;95400.63;5027624;28;20087;-71
2021/04/30 00:22:04;;;;;;;10.77;7.25;;;11.10;81.70;;;9.71;77.65;95398.19;4999627;28;20465;-70
2021/04/30 00:24:30;;;;;;;9.60;6.90;;;11.10;81.60;;;9.71;77.47;95402.66;5000574;28;20496;-70
2021/04/30 00:26:55;;;;;;;8.98;6.90;;;11.20;81.50;;;9.71;76.88;95397.38;4992159;28;20030;-71
2021/04/30 00:29:21;;;;;;;10.30;7.18;;;11.10;81.30;;;9.69;77.09;95405.47;5018174;28;20056;-70
2021/04/30 00:31:48;;;;;;;8.65;7.03;;;11.10;81.40;;;9.66;77.33;95398.00;5011042;28;537381;-71
2021/04/30 00:34:14;;;;;;;9.07;7.28;;;11.20;81.70;;;9.65;77.04;95406.88;5000602;28;20112;-70
2021/04/30 00:36:40;;;;;;;10.30;7.85;;;11.10;81.50;;;9.62;76.91;95404.66;4995101;28;20057;-70
2021/04/30 00:39:05;;;;;;;8.25;7.32;;;11.10;81.50;;;9.60;77.09;95393.56;5016178;28;20503;-70
2021/04/30 00:41:31;;;;;;;8.45;7.38;;;11.10;81.50;;;9.56;77.67;95394.97;5012322;28;20025;-70
2021/04/30 00:44:06;;;;;;;9.55;7.57;;;11.00;81.60;;;9.52;78.80;95399.00;4993261;28;20068;-70
2021/04/30 00:46:32;;;;;;;8.13;6.93;;;11.00;81.70;;;9.49;78.03;95399.38;5021448;28;20103;-71
2021/04/30 00:48:58;;;;;;;8.85;7.40;;;11.00;81.70;;;9.48;77.21;95397.75;4992613;28;20115;-69
2021/04/30 00:51:24;;;;;;;9.70;8.18;;;11.00;81.60;;;9.49;77.04;95402.00;4993712;28;20045;-71
2021/04/30 00:53:49;;;;;;;9.27;7.13;;;11.00;81.40;;;9.48;77.12;95397.75;4996887;28;20127;-70
2021/04/30 00:56:15;;;;;;;8.95;7.20;;;11.10;81.10;;;9.45;77.04;95392.91;5025229;28;20124;-70
2021/04/30 00:58:41;;;;;;;11.10;7.68;;;11.00;81.20;;;9.42;77.09;95402.00;5015802;28;20029;-70
2021/04/30 01:01:07;;;;;;;10.20;8.30;;;11.00;81.30;;;9.43;77.33;95392.31;4996529;28;20505;-70
2021/04/30 01:03:35;;;;;;;9.25;7.72;;;11.00;81.20;;;9.43;77.84;95400.19;5021438;28;20095;-70
2021/04/30 01:06:01;;;;;;;8.63;7.72;;;11.00;81.10;;;9.42;77.63;95403.81;5016976;28;20044;-70
2021/04/30 01:08:27;;;;;;;10.23;7.80;;;11.10;80.90;;;9.42;77.98;95398.56;5008605;28;20055;-71
2021/04/30 01:10:52;;;;;;;9.35;7.75;;;11.10;80.70;;;9.41;78.03;95407.44;5014620;28;20045;-70
2021/04/30 01:13:18;;;;;;;10.02;8.07;;;11.10;80.70;;;9.41;78.04;95412.69;5016715;28;20408;-71
2021/04/30 01:15:44;;;;;;;10.30;7.90;;;11.00;80.80;;;9.40;77.33;95409.25;4992403;28;20028;-70
2021/04/30 01:18:10;;;;;;;9.40;7.88;;;11.10;80.80;;;9.41;77.46;95416.13;4991110;28;20501;-71
2021/04/30 01:20:35;;;;;;;9.38;8.00;;;11.00;80.90;;;9.36;77.94;95415.91;5044373;28;20037;-70
2021/04/30 01:23:01;;;;;;;10.05;7.95;;;11.00;81.00;;;9.33;77.59;95415.50;4990587;28;20040;-70
2021/04/30 01:25:34;;;;;;;12.57;8.75;;;10.90;81.30;;;9.31;78.63;95422.78;5024883;28;20033;-70
2021/04/30 01:28:00;;;;;;;13.18;8.50;;;10.90;81.40;;;9.30;77.81;95416.72;4990231;28;20045;-70
2021/04/30 01:30:28;;;;;;;9.75;8.38;;;10.80;81.50;;;9.30;78.34;95421.16;5000442;28;20412;-70
2021/04/30 01:32:54;;;;;;;10.35;8.43;;;10.90;81.40;;;9.30;78.17;95429.03;5007143;28;20568;-71
2021/04/30 01:35:31;;;;;;;11.45;7.97;;;10.80;81.50;;;9.30;79.15;95426.41;4997135;28;20095;-70
2021/04/30 01:37:57;;;;;;;11.13;8.00;;;10.80;81.50;;;9.29;77.48;95430.03;5008521;28;20132;-70
2021/04/30 01:40:31;;;;;;;9.20;7.70;;;10.80;81.30;;;9.25;78.83;95429.59;4997540;28;20107;-71
2021/04/30 01:43:10;;;;;;;11.52;7.57;;;10.70;81.60;;;9.25;79.49;95434.03;5002896;28;20045;-72
2021/04/30 01:45:54;;;;;;;9.25;7.65;;;10.70;81.90;;;9.27;79.63;95437.28;4998869;28;20037;-71
2021/04/30 01:48:24;;;;;;;8.20;7.07;;;10.80;81.70;;;9.28;77.68;95441.50;5000668;28;20033;-72
2021/04/30 01:50:50;;;;;;;8.52;6.85;;;10.90;81.20;;;9.30;77.67;95436.91;5027409;28;20106;-70
2021/04/30 01:53:23;;;;;;;8.88;7.53;;;10.80;81.10;;;9.28;78.64;95438.88;5001474;28;20025;-71
2021/04/30 01:55:49;;;;;;;8.88;7.65;;;10.80;81.20;;;9.27;78.10;95437.28;5028698;28;20406;-70
2021/04/30 01:58:18;;;;;;;9.35;7.68;;;10.80;81.00;;;9.23;78.66;95430.81;5013721;28;20060;-70
2021/04/30 02:00:44;;;;;;;10.20;8.23;;;10.70;81.30;;;9.23;78.28;95433.44;4998941;28;20103;-70
2021/04/30 02:03:10;;;;;;;8.88;7.57;;;10.80;81.20;;;9.24;78.44;95432.41;4982445;28;20033;-71
2021/04/30 02:05:36;;;;;;;8.45;7.28;;;10.80;81.30;;;9.26;78.19;95430.41;5010271;28;20327;-71
2021/04/30 02:08:10;;;;;;;10.20;7.40;;;10.80;81.20;;;9.28;79.77;95441.50;4981301;28;20216;-70
2021/04/30 02:10:36;;;;;;;8.70;7.55;;;10.90;81.20;;;9.28;78.26;95431.00;5028168;28;20064;-71
2021/04/30 02:13:02;;;;;;;9.23;6.82;;;10.90;80.90;;;9.30;78.65;95427.22;5004661;28;20617;-71
2021/04/30 02:15:30;;;;;;;8.77;7.47;;;11.00;80.90;;;9.32;78.24;95424.38;5009319;28;20060;-70
2021/04/30 02:17:56;;;;;;;9.85;7.35;;;11.00;80.60;;;9.29;78.58;95424.78;5012286;28;20048;-71
2021/04/30 02:20:22;;;;;;;10.13;7.60;;;10.90;80.60;;;9.28;78.35;95428.38;5014986;28;20036;-71
2021/04/30 02:22:48;;;;;;;9.18;7.22;;;10.80;80.90;;;9.28;77.73;95433.63;4997406;28;20463;-71
2021/04/30 02:25:15;;;;;;;8.18;7.03;;;10.90;81.00;;;9.30;78.00;95427.22;5032090;28;20029;-70
2021/04/30 02:27:41;;;;;;;11.32;7.65;;;10.90;81.00;;;9.31;77.77;95422.78;4995351;28;20125;-71
2021/04/30 02:30:09;;;;;;;9.27;7.60;;;11.00;81.10;;;9.34;78.86;95430.25;4980323;28;20539;-71
2021/04/30 02:32:35;;;;;;;10.95;7.45;;;11.00;81.20;;;9.35;78.51;95434.50;5030236;28;20044;-71
2021/04/30 02:35:09;;;;;;;10.88;8.07;;;11.00;81.30;;;9.36;79.75;95428.22;5031977;28;20102;-71
2021/04/30 02:37:35;;;;;;;9.98;7.90;;;11.10;81.20;;;9.37;78.61;95435.09;5008194;28;20033;-72
2021/04/30 02:40:00;;;;;;;9.30;7.82;;;11.10;81.00;;;9.38;78.59;95445.41;5013792;28;20646;-70
2021/04/30 02:42:26;;;;;;;10.70;8.82;;;11.10;81.00;;;9.42;78.40;95440.56;5031614;28;20492;-72
2021/04/30 02:44:52;;;;;;;9.07;8.18;;;11.20;81.00;;;9.42;78.20;95436.13;4998295;28;20041;-71
2021/04/30 02:47:20;;;;;;;9.75;8.48;;;11.20;81.10;;;9.43;79.25;95431.69;4985334;28;20129;-70
2021/04/30 02:49:46;;;;;;;12.48;9.13;;;11.20;80.90;;;9.43;78.21;95432.50;4986546;28;20120;-70
2021/04/30 02:52:16;;;;;;;10.40;9.07;;;11.20;81.00;;;9.46;79.50;95439.16;5014951;28;20033;-70
2021/04/30 02:54:41;;;;;;;12.32;9.52;;;11.20;80.80;;;9.45;78.90;95430.47;4997571;28;20040;-73
2021/04/30 02:57:07;;;;;;;10.48;9.10;;;11.30;80.90;;;9.47;79.05;95427.66;4999727;28;20033;-70
2021/04/30 02:59:33;;;;;;;12.48;9.07;;;11.30;80.80;;;9.47;78.93;95425.81;5023269;28;20095;-71
2021/04/30 03:01:59;;;;;;;9.88;8.93;;;11.30;80.70;;;9.48;79.48;95435.31;5011798;28;20041;-70
2021/04/30 03:04:25;;;;;;;12.20;8.90;;;11.30;80.90;;;9.49;78.37;95436.13;4988079;28;20038;-71
2021/04/30 03:06:50;;;;;;;11.88;9.55;;;11.20;80.90;;;9.49;79.26;95436.94;4962615;28;20116;-71
2021/04/30 03:09:16;;;;;;;10.82;9.68;;;11.30;81.00;;;9.46;78.46;95426.03;4986840;28;20033;-69
2021/04/30 03:11:42;;;;;;;11.80;10.10;;;11.10;80.70;;;9.48;78.44;95429.25;5027514;28;20440;-69
2021/04/30 03:14:08;;;;;;;13.18;11.65;;;11.20;80.30;;;9.45;78.06;95424.41;5029340;28;20470;-66
2021/04/30 03:16:34;;;;;;;13.90;11.90;;;11.10;79.90;;;9.46;78.01;95415.53;5015892;28;20439;-67
2021/04/30 03:18:59;;;;;;;14.77;12.15;;;11.10;79.70;;;9.45;78.35;95404.22;5013203;28;20093;-68
2021/04/30 03:21:25;;;;;;;15.95;13.48;;;11.20;79.40;;;9.44;78.51;95415.72;5021737;28;20092;-69
2021/04/30 03:23:51;;;;;;;15.80;12.95;;;11.10;79.30;;;9.41;77.78;95433.69;5010949;28;20037;-69
2021/04/30 03:26:17;;;;;;;20.40;13.68;;;11.10;79.40;;;9.40;77.55;95429.44;5029072;28;20714;-69
2021/04/30 03:28:43;;;;;;;16.40;14.00;;;11.10;79.20;;;9.36;78.13;95436.91;5013654;28;20036;-68
2021/04/30 03:31:08;;;;;;;16.92;13.65;;;11.10;79.20;;;9.34;77.94;95438.94;5020526;28;20049;-69
2021/04/30 03:33:34;;;;;;;18.05;14.45;;;11.10;79.10;;;9.32;77.63;95434.88;5015397;28;20130;-69
2021/04/30 03:36:00;;;;;;;17.40;14.88;;;11.10;79.10;;;9.31;77.66;95434.09;5002338;28;20049;-70
2021/04/30 03:38:26;;;;;;;16.95;14.73;;;11.10;79.10;;;9.30;77.49;95432.47;5002291;28;20478;-68
2021/04/30 03:40:51;;;;;;;18.52;14.43;;;11.00;79.10;;;9.28;77.68;95423.13;5020289;28;20629;-68
2021/04/30 03:43:17;;;;;;;17.45;14.65;;;11.00;79.20;;;9.21;77.88;95431.81;5003510;28;20070;-67
2021/04/30 03:45:43;;;;;;;17.58;15.52;;;10.90;79.00;;;9.13;78.05;95436.44;5005479;28;20423;-71
2021/04/30 03:48:09;;;;;;;17.38;15.48;;;10.70;79.10;;;9.05;77.57;95434.78;5015474;28;20107;-71
2021/04/30 03:50:34;;;;;;;19.52;16.50;;;10.70;78.80;;;8.97;77.17;95432.31;5012432;28;20345;-70
2021/04/30 03:53:00;;;;;;;20.20;16.42;;;10.60;78.90;;;8.93;76.96;95425.84;5046890;28;20039;-71
2021/04/30 03:55:26;;;;;;;19.75;16.17;;;10.60;78.80;;;8.87;77.04;95432.69;5047070;28;20170;-70
2021/04/30 03:57:52;;;;;;;19.98;16.20;;;10.50;78.70;;;8.82;76.96;95429.00;5029453;28;20120;-70
2021/04/30 04:00:19;;;;;;;17.98;15.85;;;10.50;78.50;;;8.75;76.79;95423.75;5011831;28;20056;-71
2021/04/30 04:02:47;;;;;;;17.58;15.63;;;10.40;78.00;;;8.70;76.63;95425.34;5002812;28;20030;-71
2021/04/30 04:05:13;;;;;;;19.48;15.75;;;10.40;77.80;;;8.65;76.56;95420.69;5019410;28;20804;-71
2021/04/30 04:07:39;;;;;;;18.98;15.55;;;10.30;77.60;;;8.58;76.40;95418.00;5046530;28;20032;-71
2021/04/30 04:10:05;;;;;;;20.20;16.23;;;10.30;77.20;;;8.52;76.12;95410.91;5041791;28;20730;-71
2021/04/30 04:12:31;;;;;;;18.70;15.70;;;10.20;77.10;;;8.43;75.95;95414.69;5028429;28;20477;-71
2021/04/30 04:14:57;;;;;;;20.20;16.17;;;10.10;76.80;;;8.35;75.98;95420.06;4994212;28;20041;-71
2021/04/30 04:17:22;;;;;;;20.88;15.40;;;10.10;76.70;;;8.32;76.12;95407.31;5029667;28;20039;-71
2021/04/30 04:19:49;;;;;;;19.23;16.17;;;10.10;76.90;;;8.27;76.33;95413.16;5031984;28;20060;-71
2021/04/30 04:22:16;;;;;;;20.33;16.63;;;10.00;77.10;;;8.21;76.44;95416.53;4989850;28;20041;-71
2021/04/30 04:24:41;;;;;;;21.90;16.35;;;10.00;77.40;;;8.20;76.15;95419.34;5018858;28;20032;-68
2021/04/30 04:27:08;;;;;;;20.27;16.00;;;9.90;77.40;;;8.17;76.12;95419.72;5033416;28;20120;-69
2021/04/30 04:29:35;;;;;;;19.13;15.77;;;9.90;77.50;;;8.13;75.86;95428.94;5019775;28;20501;-71
2021/04/30 04:32:00;;;;;;;21.67;16.92;;;9.90;77.40;;;8.10;76.51;95434.56;5013653;28;20060;-72
2021/04/30 04:34:26;;;;;;;22.10;16.98;;;9.80;77.70;;;8.07;76.20;95451.47;5028687;28;20071;-68
2021/04/30 04:36:52;;;;;;;22.00;17.48;;;9.80;78.10;;;8.07;76.65;95455.91;5026056;28;20098;-70
2021/04/30 04:39:19;;;;;;;21.35;17.50;;;9.80;78.70;;;8.06;76.93;95464.75;5010358;28;20826;-71
2021/04/30 04:41:44;;;;;;;25.75;18.52;;;9.80;78.60;;;8.07;76.60;95463.75;4979156;28;20076;-69
2021/04/30 04:44:10;;;;;;;18.10;16.17;;;9.80;78.60;;;8.09;76.94;95469.63;5011696;28;20029;-67
2021/04/30 04:46:36;;;;;;;19.80;17.08;;;9.90;78.50;;;8.08;76.69;95468.81;5015387;28;20425;-70
2021/04/30 04:49:02;;;;;;;22.92;17.35;;;9.90;78.30;;;8.10;76.63;95476.47;4996839;28;20033;-69
2021/04/30 04:51:27;;;;;;;23.10;16.98;;;9.90;78.20;;;8.10;76.80;95477.28;5012988;28;20040;-69
2021/04/30 04:53:53;;;;;;;20.13;17.80;;;9.90;77.90;;;8.11;76.73;95478.91;5013260;28;20516;-69
2021/04/30 04:56:24;;;;;;;19.58;17.17;;;9.90;78.10;;;8.12;76.80;95471.84;5028880;28;20044;-69
2021/04/30 04:58:50;;;;;;;22.80;17.08;;;9.90;78.20;;;8.12;76.46;95470.03;5013977;28;20056;-69
2021/04/30 05:01:16;;;;;;;23.08;16.95;;;9.90;78.40;;;8.15;76.67;95474.94;5025811;28;20445;-69
2021/04/30 05:03:42;;;;;;;21.33;16.73;;;9.90;78.20;;;8.18;76.69;95468.50;5029411;28;20036;-70
2021/04/30 05:06:07;;;;;;;21.45;18.27;;;10.00;78.20;;;8.17;76.60;95465.06;5012593;28;20060;-70
2021/04/30 05:08:33;;;;;;;21.17;18.40;;;10.00;78.20;;;8.22;76.88;95469.75;4996998;28;20029;-70
2021/04/30 05:10:59;;;;;;;23.85;19.50;;;10.10;77.80;;;8.28;76.86;95479.44;4996110;28;20092;-68
2021/04/30 05:13:25;;;;;;;21.02;16.75;;;10.20;77.60;;;8.32;76.96;95480.69;5012932;28;20068;-70
2021/04/30 05:15:51;;;;;;;20.50;16.45;;;10.40;77.20;;;8.43;76.92;95488.06;5046648;28;20386;-69
2021/04/30 05:18:16;;;;;;;18.95;16.08;;;10.50;76.30;;;8.53;76.69;95485.09;5029221;28;20119;-69
2021/04/30 05:20:42;;;;;;;19.80;16.95;;;10.70;75.80;;;8.67;76.43;95480.78;5028447;28;20497;-69
2021/04/30 05:23:08;;;;;;;18.92;15.80;;;10.90;75.70;;;8.81;76.48;95482.47;5029210;28;20092;-69
2021/04/30 05:25:33;;;;;;;18.33;15.20;;;11.00;75.00;;;8.97;76.36;95486.59;5012715;28;20497;-68
2021/04/30 05:27:59;;;;;;;17.27;14.27;;;11.10;75.20;;;9.09;76.68;95479.81;5028981;28;20087;-67
2021/04/30 05:30:25;;;;;;;22.20;16.00;;;11.30;74.80;;;9.21;76.42;95484.28;5005457;28;20291;-69
2021/04/30 05:32:51;;;;;;;28.10;20.25;;;11.50;74.10;;;9.36;75.60;95488.59;5012126;28;20032;-69
2021/04/30 05:35:17;;;;;;;23.23;16.08;;;11.60;73.40;;;9.46;75.97;95483.78;5012346;28;20121;-69
2021/04/30 05:37:43;;;;;;;30.85;25.40;;;11.60;72.70;;;9.57;75.55;95483.22;5009690;28;20130;-69
2021/04/30 05:40:09;;;;;;;22.75;17.83;;;11.70;72.50;;;9.67;75.48;95491.53;4992629;28;20113;-68
2021/04/30 05:42:35;;;;;;;18.98;15.77;;;11.70;72.50;;;9.73;74.63;95495.16;5009343;28;20042;-70
2021/04/30 05:45:01;;;;;;;18.80;15.20;;;11.80;72.40;;;9.78;74.99;95484.91;4992463;28;20033;-69
2021/04/30 05:47:26;;;;;;;18.23;14.38;;;11.90;71.70;;;9.80;74.77;95480.25;5037650;28;20048;-69
2021/04/30 05:49:52;;;;;;;17.25;14.40;;;11.90;71.70;;;9.87;73.82;95480.25;5030468;28;20041;-68
2021/04/30 05:52:18;;;;;;;16.50;13.48;;;12.00;71.40;;;9.92;73.90;95480.47;5032582;28;20194;-69
2021/04/30 05:54:44;;;;;;;17.40;14.30;;;12.00;69.40;;;9.95;72.81;95480.88;5032422;28;20040;-69
2021/04/30 05:57:09;;;;;;;15.57;13.82;;;12.10;69.40;;;10.03;72.82;95490.41;5011846;28;20457;-68
2021/04/30 05:59:35;;;;;;;15.23;12.60;;;12.10;68.80;;;10.08;72.77;95498.47;5008512;28;20033;-68
2021/04/30 06:02:01;;;;;;;18.08;13.13;;;12.10;68.30;;;10.12;72.56;95499.69;5015722;28;20128;-67
2021/04/30 06:04:28;;;;;;;16.00;12.95;;;12.10;68.30;;;10.13;72.32;95510.00;5049824;28;20037;-68
2021/04/30 06:06:54;;;;;;;15.77;12.95;;;12.10;67.80;;;10.14;71.12;95502.94;5047903;28;20029;-68
2021/04/30 06:09:20;;;;;;;15.52;13.02;;;12.10;68.10;;;10.14;70.89;95503.72;5015438;28;20119;-69
2021/04/30 06:11:46;;;;;;;14.73;12.93;;;12.10;68.30;;;10.16;70.35;95511.41;5032058;28;20052;-69
2021/04/30 06:14:11;;;;;;;15.88;13.40;;;12.10;67.40;;;10.19;70.55;95518.94;5007835;28;20485;-68
2021/04/30 06:16:38;;;;;;;18.60;13.38;;;12.20;67.50;;;10.22;71.32;95518.56;5012073;28;20033;-69
2021/04/30 06:19:04;;;;;;;18.55;13.13;;;12.30;67.60;;;10.25;70.39;95530.47;5012284;28;20416;-68
2021/04/30 06:21:29;;;;;;;16.60;13.38;;;12.30;68.00;;;10.24;70.79;95527.03;5017611;28;20025;-68
2021/04/30 06:23:55;;;;;;;13.30;11.90;;;12.30;67.70;;;10.25;70.46;95526.03;5010480;28;20056;-68
2021/04/30 06:26:21;;;;;;;15.27;13.18;;;12.20;66.50;;;10.24;70.09;95528.88;5015206;28;20040;-68
2021/04/30 06:28:46;;;;;;;16.17;12.90;;;12.10;66.90;;;10.24;69.42;95529.66;5024874;28;20029;-66
2021/04/30 06:31:12;;;;;;;14.93;12.60;;;12.20;66.80;;;10.29;70.54;95524.63;5023808;28;20049;-68
2021/04/30 06:33:38;;;;;;;16.02;12.68;;;12.40;66.80;;;10.34;69.62;95529.25;5001597;28;20037;-69
2021/04/30 06:36:05;;;;;;;15.98;12.32;;;12.40;66.60;;;10.38;68.72;95536.53;4995416;28;20045;-68
2021/04/30 06:38:31;;;;;;;15.90;12.30;;;12.40;65.70;;;10.39;68.79;95526.84;5030552;28;20549;-69
2021/04/30 06:40:56;;;;;;;15.70;12.55;;;12.50;65.70;;;10.48;69.71;95517.75;5048578;28;20044;-69
2021/04/30 06:43:22;;;;;;;16.98;12.98;;;12.60;66.80;;;10.57;69.95;95518.34;5004979;28;20120;-64
2021/04/30 06:45:48;;;;;;;17.63;12.48;;;12.70;66.40;;;10.60;68.46;95524.00;5011542;28;20045;-67
2021/04/30 06:48:14;;;;;;;17.13;11.95;;;12.70;65.40;;;10.65;69.49;95521.59;5040614;28;20116;-67
2021/04/30 06:50:39;;;;;;;18.20;13.73;;;12.80;65.80;;;10.73;68.98;95515.31;4981852;28;20084;-65
2021/04/30 06:53:05;;;;;;;17.73;13.38;;;12.90;65.30;;;10.82;68.89;95508.81;5023051;28;20426;-69
2021/04/30 06:55:31;;;;;;;15.68;12.52;;;13.10;63.80;;;10.94;69.07;95501.94;5011272;28;20552;-65
2021/04/30 06:57:56;;;;;;;15.63;11.77;;;13.40;63.40;;;11.06;68.83;95496.81;5012267;28;20472;-70
2021/04/30 07:00:22;;;;;;;15.25;12.20;;;13.60;63.20;;;11.19;68.73;95496.81;5019419;28;20398;-70
2021/04/30 07:02:48;;;;;;;17.05;11.93;;;13.70;62.90;;;11.34;68.38;95488.66;5024084;28;20084;-68
2021/04/30 07:05:14;;;;;;;14.10;11.38;;;13.90;62.80;;;11.45;67.42;95485.38;4994711;28;20100;-71
2021/04/30 07:07:41;;;;;;;17.75;11.57;;;14.10;60.30;;;11.62;67.64;95490.97;4979871;28;20086;-70
2021/04/30 07:10:07;;;;;;;12.65;10.48;;;14.80;59.00;;;11.88;67.09;95492.69;5004261;28;20531;-71
2021/04/30 07:12:33;;;;;;;11.02;9.77;;;15.50;56.10;;;12.12;66.42;95496.38;5013022;28;20575;-71
2021/04/30 07:15:00;;;;;;;12.65;9.80;;;15.90;53.50;;;12.39;66.00;95497.81;4991927;28;20049;-70
2021/04/30 07:17:27;;;;;;;13.27;9.93;;;16.50;51.80;;;12.68;65.42;95496.38;5022275;28;20061;-67
2021/04/30 07:19:53;;;;;;;12.25;9.50;;;17.00;49.80;;;12.89;64.87;95493.31;5013668;28;20068;-68
2021/04/30 07:22:19;;;;;;;11.93;9.40;;;17.00;48.60;;;13.11;64.25;95479.69;5014251;28;20327;-71
2021/04/30 07:24:46;;;;;;;12.30;10.13;;;17.20;48.00;;;13.29;64.18;95471.81;4995882;28;20100;-70
2021/04/30 07:27:12;;;;;;;10.98;9.77;;;17.60;47.60;;;13.58;63.19;95458.84;5006570;28;20382;-65
2021/04/30 07:29:38;;;;;;;12.75;10.38;;;18.00;46.30;;;13.83;63.08;95462.19;5010607;28;20029;-67
2021/04/30 07:32:04;;;;;;;12.82;9.98;;;18.40;46.00;;;14.06;61.27;95462.28;5010003;28;20038;-67
2021/04/30 07:34:29;;;;;;;12.10;9.88;;;18.60;43.40;;;14.26;60.90;95464.63;5018465;28;20033;-67
2021/04/30 07:36:55;;;;;;;12.43;10.00;;;18.80;44.70;;;14.48;60.31;95467.53;5012849;28;20106;-66
2021/04/30 07:39:21;;;;;;;10.85;9.55;;;19.10;43.20;;;14.65;60.13;95455.25;5016909;28;20037;-71
2021/04/30 07:41:47;;;;;;;12.07;10.25;;;19.30;43.80;;;14.88;60.62;95451.78;5028068;28;20115;-69
2021/04/30 07:44:13;;;;;;;13.15;10.75;;;19.60;42.40;;;15.13;59.59;95451.53;5029479;28;20500;-67
2021/04/30 07:46:39;;;;;;;12.38;9.98;;;19.90;42.30;;;15.35;58.71;95437.66;5030211;28;20155;-66
2021/04/30 07:49:04;;;;;;;12.20;9.88;;;20.20;42.20;;;15.60;58.24;95446.13;5004258;28;20612;-66
2021/04/30 07:51:30;;;;;;;11.68;9.45;;;20.40;41.20;;;15.81;57.87;95439.38;5037178;28;20442;-67
2021/04/30 07:53:56;;;;;;;11.95;10.15;;;20.60;39.60;;;15.86;57.43;95434.97;5030176;28;20041;-67
2021/04/30 07:56:22;;;;;;;12.65;9.90;;;20.60;39.60;;;16.00;57.61;95439.97;5039264;28;20048;-69
2021/04/30 07:58:47;;;;;;;12.43;9.98;;;20.70;39.90;;;16.30;57.45;95435.19;5010230;28;20064;-67
2021/04/30 08:01:13;;;;;;;13.77;10.93;;;21.10;40.70;;;16.62;56.69;95426.66;5024976;28;20147;-67
2021/04/30 08:03:39;;;;;;;12.85;9.82;;;21.50;40.40;;;16.90;55.27;95423.91;5029944;28;20463;-68
2021/04/30 08:06:05;;;;;;;13.55;10.70;;;21.70;37.20;;;17.12;54.20;95427.41;5029219;28;20208;-67
2021/04/30 08:08:30;;;;;;;11.80;9.73;;;21.80;37.70;;;17.44;54.48;95424.09;5031649;28;20045;-68
2021/04/30 08:10:56;;;;;;;11.43;9.20;;;22.10;38.40;;;17.63;53.64;95421.88;4978236;28;20060;-67
2021/04/30 08:13:22;;;;;;;10.48;9.38;;;21.90;37.70;;;17.74;53.38;95413.81;5028772;28;20021;-67
2021/04/30 08:15:48;;;;;;;11.93;10.15;;;22.20;37.30;;;17.90;52.71;95413.97;5047996;28;20033;-67
2021/04/30 08:18:14;;;;;;;10.55;9.40;;;22.50;37.20;;;18.10;52.18;95406.16;5026954;28;20049;-67
2021/04/30 08:20:39;;;;;;;11.80;9.93;;;22.80;36.30;;;18.29;52.06;95404.72;5012692;28;20037;-68
2021/04/30 08:23:05;;;;;;;10.35;9.25;;;23.00;34.50;;;18.43;51.71;95404.31;5003857;28;20041;-64
2021/04/30 08:25:31;;;;;;;12.00;9.05;;;23.20;34.90;;;18.52;50.08;95397.44;5029322;28;20477;-65
2021/04/30 08:27:57;;;;;;;10.52;9.30;;;23.30;33.90;;;18.68;50.67;95396.50;5034021;28;20528;-65
2021/04/30 08:30:22;;;;;;;11.82;8.90;;;23.60;34.00;;;18.84;49.88;95395.56;5025539;28;20121;-63
2021/04/30 08:32:48;;;;;;;11.80;8.60;;;23.80;34.10;;;19.07;49.32;95393.56;5031582;28;20038;-69
2021/04/30 08:35:14;;;;;;;11.52;8.65;;;24.10;32.90;;;19.25;48.46;95398.44;4976847;28;20052;-63
2021/04/30 08:37:40;;;;;;;11.02;8.80;;;24.40;32.20;;;19.43;48.63;95392.63;5039078;28;20076;-74
2021/04/30 08:40:06;;;;;;;13.23;9.65;;;24.50;32.10;;;19.69;47.75;95390.88;5029078;28;20041;-67
2021/04/30 08:42:32;;;;;;;10.40;8.25;;;24.80;33.10;;;19.91;46.69;95385.28;5011609;28;20037;-69
2021/04/30 08:44:58;;;;;;;12.88;8.43;;;24.80;31.00;;;20.06;47.49;95385.31;5046522;28;20127;-70
2021/04/30 08:47:24;;;;;;;10.93;8.75;;;24.70;31.40;;;20.27;45.74;95380.00;5024059;28;20059;-67
2021/04/30 08:49:53;;;;;;;11.10;7.88;;;25.10;30.10;;;20.38;42.89;95369.06;5027502;28;20037;-65
2021/04/30 08:52:19;;;;;;;11.27;8.10;;;25.10;29.70;;;20.51;44.54;95365.06;5011922;28;20064;-66
2021/04/30 08:54:49;;;;;;;11.85;8.20;;;25.20;30.30;;;20.62;44.88;95361.31;5011533;28;20044;-71
2021/04/30 08:57:18;;;;;;;12.40;8.40;;;25.30;30.40;;;20.85;43.86;95359.94;4992831;28;20125;-66
2021/04/30 08:59:44;;;;;;;9.93;8.77;;;25.70;30.40;;;21.05;44.75;95351.06;5041306;28;20059;-69
2021/04/30 09:02:10;;;;;;;11.85;9.10;;;25.80;30.60;;;21.29;44.24;95343.22;4986554;28;20037;-67
2021/04/30 09:04:36;;;;;;;10.85;8.13;;;26.00;30.20;;;21.45;43.04;95341.25;4995410;28;20132;-67
2021/04/30 09:07:24;;;;;;;9.68;7.70;;;26.00;28.60;;;21.63;38.94;95333.41;4977608;28;20116;-68
2021/04/30 09:10:13;;;;;;;11.07;8.00;;;26.20;29.10;;;21.82;38.82;95330.88;4995587;28;20164;-67
2021/04/30 09:12:42;;;;;;;13.18;8.68;;;26.30;29.20;;;21.91;39.96;95339.91;5018133;28;20034;-64
2021/04/30 09:15:21;;;;;;;10.85;8.70;;;26.30;28.50;;;21.99;38.56;95325.13;5012317;28;20037;-65
2021/04/30 09:17:46;;;;;;;9.93;8.90;;;26.30;29.00;;;22.03;42.10;95326.16;4996349;28;20040;-67
2021/04/30 09:20:13;;;;;;;10.00;8.45;;;26.40;30.00;;;22.02;41.83;95325.38;4995445;28;20116;-64
2021/04/30 09:22:40;;;;;;;11.77;9.20;;;25.80;30.00;;;21.91;41.51;95331.06;5029429;28;20037;-68
2021/04/30 09:25:12;;;;;;;9.93;8.93;;;25.60;30.30;;;21.88;39.75;95324.38;5011811;28;20063;-65
2021/04/30 09:27:40;;;;;;;11.93;9.27;;;25.90;30.50;;;21.86;41.14;95320.41;5020293;28;20033;-66
2021/04/30 09:30:16;;;;;;;10.38;8.85;;;25.40;30.80;;;21.72;39.01;95322.88;5019693;28;20079;-66
2021/04/30 09:33:11;;;;;;;13.10;8.93;;;24.80;31.60;;;21.58;39.01;95321.94;5038236;28;20076;-66
2021/04/30 09:35:58;;;;;;;11.15;9.57;;;25.00;32.20;;;21.39;39.52;95317.22;5011889;28;20126;-66
2021/04/30 09:38:29;;;;;;;11.23;10.02;;;24.20;33.70;;;21.20;41.38;95313.53;5030993;28;20047;-64
2021/04/30 09:41:00;;;;;;;11.77;9.23;;;24.20;34.00;;;21.29;40.86;95313.81;5016426;28;20092;-63
2021/04/30 09:43:26;;;;;;;10.73;9.23;;;24.80;32.80;;;21.34;42.29;95305.75;5032538;28;20047;-64
2021/04/30 09:45:52;;;;;;;11.60;9.20;;;24.50;33.90;;;21.28;41.73;95315.69;5026011;28;20029;-68
2021/04/30 09:48:18;;;;;;;12.52;9.80;;;24.20;34.20;;;21.04;42.67;95306.63;5018905;28;20225;-68
2021/04/30 09:50:44;;;;;;;13.40;9.75;;;23.90;33.80;;;21.05;42.23;95306.38;5029059;28;20034;-68
2021/04/30 09:53:13;;;;;;;15.68;9.68;;;24.60;34.20;;;21.27;41.64;95307.91;4986256;28;20641;-69
2021/04/30 09:55:49;;;;;;;10.85;9.30;;;24.80;33.70;;;21.39;40.20;95301.16;5016531;28;20045;-68
2021/04/30 09:58:26;;;;;;;8.73;7.82;;;25.20;32.40;;;21.56;40.88;95316.84;5011453;28;20037;-69
2021/04/30 10:00:59;;;;;;;8.55;7.65;;;25.20;32.00;;;21.48;40.45;95305.91;5029438;28;20594;-68
2021/04/30 10:03:29;;;;;;;9.98;7.55;;;24.70;32.80;;;21.35;41.71;95305.47;4997774;28;20037;-69
2021/04/30 10:06:09;;;;;;;9.33;8.13;;;24.50;33.00;;;20.96;40.86;95313.34;5015091;28;20539;-68
2021/04/30 10:08:35;;;;;;;9.80;8.35;;;23.50;34.30;;;20.67;42.37;95313.19;5030293;28;20048;-68
2021/04/30 10:11:02;;;;;;;10.07;8.60;;;23.20;35.90;;;20.55;41.80;95306.53;5000420;28;20060;-68
2021/04/30 10:13:29;;;;;;;9.63;8.40;;;23.10;36.70;;;20.41;43.29;95325.00;4998319;28;20058;-69